.
WxDataArchive / Data Records for 2012-06-14
2012-06-13 June 2012 2012-06-15

Data Records for Thursday, 14 June 2012

Time	Temp	Chill	HIndex	Humid	Dewpt	 Wind 	HiWind	WindDir	Rain 	Barom 
-----	----	-----	------	-----	-----	------	------	-------	-----	----- 
00:00	58.4	58.4	58.4	54	41.8	0	0	---	0.00	30.121 
00:05	58.1	58.1	58.1	55	42.0	0	1	68	0.00	30.121 
00:10	58.0	58.0	58.0	56	42.4	0	2	68	0.00	30.121 
00:15	58.3	58.3	58.3	55	42.2	0	2	68	0.00	30.119 
00:20	58.4	58.4	58.4	55	42.3	0	2	68	0.00	30.119 
00:25	58.6	58.6	58.6	55	42.5	1	3	68	0.00	30.119 
00:30	58.6	58.6	58.6	55	42.5	0	2	68	0.00	30.115 
00:35	58.4	58.4	58.4	55	42.3	1	2	68	0.00	30.115 
00:40	58.3	58.3	58.3	56	42.7	1	2	68	0.00	30.115 
00:45	58.3	58.3	58.3	56	42.7	1	3	68	0.00	30.115 
00:50	58.1	58.1	58.1	57	42.9	1	2	68	0.00	30.115 
00:55	58.1	58.1	58.1	57	42.9	0	2	68	0.00	30.115 
01:00	57.8	57.8	57.8	57	42.7	0	1	68	0.00	30.118 
01:05	57.6	57.6	57.6	58	42.9	1	2	68	0.00	30.118 
01:10	57.5	57.5	57.5	58	42.8	1	3	68	0.00	30.118 
01:15	57.3	57.3	57.3	59	43.1	0	2	68	0.00	30.111 
01:20	57.3	57.3	57.3	59	43.1	1	3	68	0.00	30.111 
01:25	57.2	57.2	57.2	59	43.0	1	2	68	0.00	30.111 
01:30	57.2	57.2	57.2	59	43.0	0	2	68	0.00	30.112 
01:35	57.0	57.0	57.0	60	43.3	0	2	68	0.00	30.112 
01:40	57.0	57.0	57.0	60	43.3	0	2	68	0.00	30.112 
01:45	56.9	56.9	56.9	60	43.2	0	3	68	0.00	30.110 
01:50	56.7	56.7	56.7	61	43.4	0	2	68	0.00	30.110 
01:55	56.6	56.6	56.6	61	43.3	1	2	68	0.00	30.110 
02:00	56.6	56.6	56.6	61	43.3	1	3	68	0.00	30.110 
02:05	56.6	56.6	56.6	61	43.3	2	3	68	0.00	30.110 
02:10	56.6	56.6	56.6	61	43.3	2	5	112	0.00	30.110 
02:15	56.6	56.6	56.6	61	43.3	1	3	112	0.00	30.108 
02:20	56.6	56.6	56.6	62	43.7	1	2	112	0.00	30.108 
02:25	56.6	56.6	56.6	62	43.7	0	2	112	0.00	30.108 
02:30	56.5	56.5	56.5	62	43.6	1	3	112	0.00	30.111 
02:35	56.3	56.3	56.3	62	43.4	1	3	112	0.00	30.111 
02:40	56.3	56.3	56.3	62	43.4	0	3	112	0.00	30.111 
02:45	56.2	56.2	56.2	63	43.8	0	1	112	0.00	30.116 
02:50	56.0	56.0	56.0	64	44.0	0	3	112	0.00	30.116 
02:55	55.7	55.7	55.7	65	44.1	0	0	---	0.00	30.116 
03:00	55.6	55.6	55.6	65	44.0	0	2	112	0.00	30.122 
03:05	55.1	55.1	55.1	65	43.5	0	0	---	0.00	30.122 
03:10	54.8	54.8	54.8	66	43.7	0	0	---	0.00	30.122 
03:15	54.5	54.5	54.5	67	43.8	0	0	---	0.00	30.122 
03:20	54.1	54.1	54.1	68	43.8	0	0	---	0.00	30.122 
03:25	53.8	53.8	53.8	69	43.9	0	0	---	0.00	30.122 
03:30	53.5	53.5	53.5	69	43.6	0	0	---	0.00	30.128 
03:35	53.2	53.2	53.2	70	43.7	0	0	---	0.00	30.128 
03:40	52.9	52.9	52.9	70	43.4	0	0	---	0.00	30.128 
03:45	52.6	52.6	52.6	72	43.8	0	0	---	0.00	30.130 
03:50	52.3	52.3	52.3	73	43.9	0	0	---	0.00	30.130 
03:55	52.2	52.2	52.2	73	43.8	0	0	---	0.00	30.130 
04:00	51.9	51.9	51.9	74	43.9	0	0	---	0.00	30.130 
04:05	51.6	51.6	51.6	74	43.6	0	0	---	0.00	30.130 
04:10	51.4	51.4	51.4	75	43.7	0	0	---	0.00	30.130 
04:15	51.1	51.1	51.1	77	44.1	0	0	---	0.00	30.138 
04:20	51.1	51.1	51.1	77	44.1	0	0	---	0.00	30.138 
04:25	51.0	51.0	51.0	78	44.4	0	0	---	0.00	30.138 
04:30	50.8	50.8	50.8	79	44.5	0	0	---	0.00	30.140 
04:35	50.8	50.8	50.8	80	44.9	0	0	---	0.00	30.140 
04:40	50.7	50.7	50.7	80	44.8	0	0	---	0.00	30.140 
04:45	50.7	50.7	50.7	80	44.8	0	0	---	0.00	30.141 
04:50	50.5	50.5	50.5	81	44.9	0	0	---	0.00	30.141 
04:55	50.5	50.5	50.5	81	44.9	0	0	---	0.00	30.141 
05:00	50.5	50.5	50.5	82	45.2	0	0	---	0.00	30.140 
05:05	50.5	50.5	50.5	82	45.2	0	0	---	0.00	30.140 
05:10	51.0	51.0	51.0	82	45.7	0	2	112	0.00	30.140 
05:15	51.6	51.6	51.6	81	46.0	0	1	112	0.00	30.138 
05:20	52.0	52.0	52.0	79	45.7	0	1	112	0.00	30.138 
05:25	52.6	52.6	52.6	77	45.6	1	3	112	0.00	30.138 
05:30	52.9	52.9	52.9	77	45.9	1	2	112	0.00	30.138 
05:35	53.1	53.1	53.1	76	45.7	0	1	112	0.00	30.138 
05:40	53.1	53.1	53.1	76	45.7	1	2	112	0.00	30.138 
05:45	53.1	53.1	53.1	76	45.7	1	2	112	0.00	30.141 
05:50	52.9	52.9	52.9	76	45.5	0	1	112	0.00	30.141 
05:55	52.9	52.9	52.9	77	45.9	0	2	112	0.00	30.141 
06:00	52.8	52.8	52.8	77	45.8	0	1	112	0.00	30.147 
06:05	52.5	52.5	52.5	77	45.5	0	1	112	0.00	30.147 
06:10	52.2	52.2	52.2	77	45.2	0	0	---	0.00	30.147 
06:15	52.0	52.0	52.0	78	45.4	0	0	---	0.00	30.161 
06:20	51.9	51.9	51.9	79	45.6	0	0	---	0.00	30.161 
06:25	51.6	51.6	51.6	80	45.6	0	0	---	0.00	30.161 
06:30	51.6	51.6	51.6	81	46.0	0	0	---	0.00	30.171 
06:35	51.4	51.4	51.4	81	45.8	0	0	---	0.00	30.171 
06:40	51.4	51.4	51.4	82	46.1	0	0	---	0.00	30.171 
06:45	51.7	51.7	51.7	83	46.7	0	1	112	0.00	30.171 
06:50	52.0	52.0	52.0	83	47.0	0	1	112	0.00	30.171 
06:55	52.3	52.3	52.3	82	47.0	0	1	112	0.00	30.171 
07:00	52.8	52.8	52.8	82	47.5	0	1	112	0.00	30.171 
07:05	53.1	53.1	53.1	82	47.8	1	4	112	0.00	30.171 
07:10	53.6	53.6	53.6	81	47.9	1	5	112	0.00	30.171 
07:15	54.1	54.1	54.1	80	48.1	1	4	90	0.00	30.171 
07:20	54.4	54.4	54.4	80	48.4	0	1	90	0.00	30.171 
07:25	54.8	54.8	54.8	80	48.7	0	3	90	0.00	30.171 
07:30	55.6	55.6	55.6	78	48.8	1	4	90	0.00	30.177 
07:35	56.3	56.3	56.3	76	48.8	1	3	112	0.00	30.177 
07:40	57.0	57.0	57.0	75	49.2	2	7	112	0.00	30.177 
07:45	57.3	57.3	57.3	75	49.4	3	7	90	0.00	30.170 
07:50	57.8	57.8	57.8	75	49.9	2	7	90	0.00	30.170 
07:55	58.4	58.4	58.4	73	49.8	1	4	45	0.00	30.170 
08:00	58.9	58.9	58.9	72	49.9	3	6	90	0.00	30.173 
08:05	59.0	59.0	59.0	72	50.0	2	4	90	0.00	30.173 
08:10	59.3	59.3	59.3	71	49.9	2	6	90	0.00	30.173 
08:15	59.6	59.6	59.6	70	49.8	2	6	68	0.00	30.175 
08:20	59.9	59.9	59.9	70	50.1	2	5	90	0.00	30.175 
08:25	60.4	60.4	60.4	68	49.8	2	5	112	0.00	30.175 
08:30	60.9	60.9	60.9	68	50.3	3	7	112	0.00	30.178 
08:35	61.0	61.0	61.0	67	50.0	2	9	22	0.00	30.178 
08:40	61.6	61.6	61.6	65	49.7	3	5	90	0.00	30.178 
08:45	62.0	62.0	62.0	64	49.7	3	6	90	0.00	30.176 
08:50	62.3	62.3	62.3	63	49.5	3	7	90	0.00	30.176 
08:55	62.7	62.7	62.7	62	49.5	3	8	90	0.00	30.176 
09:00	63.1	63.1	63.1	60	49.0	2	6	90	0.00	30.170 
09:05	63.5	63.5	63.5	58	48.5	3	7	90	0.00	30.170 
09:10	63.9	63.9	63.9	58	48.8	3	6	90	0.00	30.170 
09:15	64.3	64.3	64.3	57	48.7	2	6	90	0.00	30.174 
09:20	65.2	65.2	65.2	55	48.6	1	5	90	0.00	30.174 
09:25	65.6	65.6	65.6	54	48.5	2	5	90	0.00	30.174 
09:30	65.6	65.6	65.6	54	48.5	2	6	90	0.00	30.172 
09:35	66.3	66.3	66.3	51	47.6	2	6	68	0.00	30.172 
09:40	66.4	66.4	66.4	51	47.7	3	9	90	0.00	30.172 
09:45	66.8	66.8	66.8	49	47.0	2	5	90	0.00	30.168 
09:50	67.1	67.1	67.1	47	46.2	2	5	68	0.00	30.168 
09:55	67.3	67.3	67.3	49	47.5	2	5	68	0.00	30.168 
10:00	67.9	67.9	67.9	47	46.9	2	9	90	0.00	30.168 
10:05	68.4	68.4	68.4	47	47.4	1	3	68	0.00	30.168 
10:10	68.9	68.9	68.9	46	47.3	3	5	68	0.00	30.168 
10:15	68.9	68.9	68.9	46	47.3	2	5	68	0.00	30.171 
10:20	69.4	69.4	69.4	46	47.7	2	5	90	0.00	30.171 
10:25	69.9	69.9	69.9	45	47.6	2	4	90	0.00	30.171 
10:30	70.1	70.1	70.1	42	45.9	2	5	90	0.00	30.166 
10:35	70.4	70.4	70.4	43	46.8	2	5	90	0.00	30.166 
10:40	70.4	70.4	70.4	43	46.8	3	6	90	0.00	30.166 
10:45	70.4	70.4	70.4	43	46.8	2	6	90	0.00	30.163 
10:50	70.3	70.3	70.3	43	46.7	2	6	90	0.00	30.163 
10:55	70.8	70.8	70.8	43	47.2	2	5	90	0.00	30.163 
11:00	71.3	71.3	71.3	42	47.0	2	4	90	0.00	30.165 
11:05	72.1	72.1	72.1	40	46.4	1	4	90	0.00	30.165 
11:10	73.0	73.0	73.0	37	45.2	1	4	90	0.00	30.165 
11:15	73.7	73.7	73.7	36	45.1	1	3	90	0.00	30.163 
11:20	74.2	74.2	74.2	35	44.8	1	3	90	0.00	30.163 
11:25	74.4	74.4	74.4	35	44.9	1	5	90	0.00	30.163 
11:30	75.1	75.1	77.4	37	47.0	0	3	90	0.00	30.159 
11:35	75.8	75.8	77.5	34	45.4	1	3	90	0.00	30.159 
11:40	75.8	75.8	77.5	35	46.2	2	4	90	0.00	30.159 
11:45	75.4	75.4	77.2	32	43.5	3	6	90	0.00	30.159 
11:50	75.4	75.4	77.3	34	45.1	1	4	90	0.00	30.159 
11:55	75.8	75.8	77.5	35	46.2	1	4	90	0.00	30.159 
12:00	76.3	76.3	77.5	31	43.4	1	3	90	0.00	30.162 
12:05	76.1	76.1	77.4	31	43.3	2	4	90	0.00	30.162 
12:10	75.6	75.6	77.1	29	41.1	2	6	112	0.00	30.162 
12:15	76.0	76.0	77.3	31	43.2	1	6	90	0.00	30.161 
12:20	76.3	76.3	77.4	30	42.6	2	5	90	0.00	30.161 
12:25	76.3	76.3	77.3	29	41.7	2	6	90	0.00	30.161 
12:30	76.8	76.8	77.6	30	43.0	1	5	90	0.00	30.151 
12:35	77.6	77.6	77.8	28	41.9	1	5	90	0.00	30.151 
12:40	78.1	78.1	78.0	28	42.3	1	5	90	0.00	30.151 
12:45	78.1	78.1	77.8	25	39.4	2	4	90	0.00	30.149 
12:50	77.9	77.9	77.8	26	40.2	2	6	90	0.00	30.149 
12:55	77.9	77.9	77.8	26	40.2	2	6	90	0.00	30.149 
13:00	78.1	78.1	78.0	27	41.4	1	3	90	0.00	30.145 
13:05	78.5	78.5	78.0	25	39.7	2	6	112	0.00	30.145 
13:10	78.3	78.3	77.9	25	39.6	2	6	90	0.00	30.145 
13:15	78.8	78.8	78.2	25	40.0	1	4	90	0.00	30.134 
13:20	78.8	78.8	78.2	25	40.0	2	9	112	0.00	30.134 
13:25	79.0	79.0	78.3	25	40.2	1	7	135	0.00	30.134 
13:30	79.2	79.2	78.4	24	39.3	2	5	112	0.00	30.128 
13:35	79.4	79.4	78.5	24	39.4	2	4	112	0.00	30.128 
13:40	79.0	79.0	78.1	22	36.9	3	6	90	0.00	30.128 
13:45	79.2	79.2	78.4	24	39.3	1	3	68	0.00	30.124 
13:50	79.9	79.9	78.8	24	39.9	1	5	90	0.00	30.124 
13:55	80.1	80.1	78.8	23	38.9	2	5	90	0.00	30.124 
14:00	80.5	80.5	79.1	23	39.3	2	5	112	0.00	30.130 
14:05	80.7	80.7	79.1	22	38.3	2	7	112	0.00	30.130 
14:10	80.3	80.3	78.8	20	35.6	3	6	90	0.00	30.130 
14:15	80.5	80.5	78.9	21	37.0	2	5	90	0.00	30.131 
14:20	80.7	80.7	79.1	22	38.3	2	5	112	0.00	30.131 
14:25	80.9	80.9	79.2	22	38.5	2	8	112	0.00	30.131 
14:30	81.4	81.4	79.6	22	38.9	2	4	90	0.00	30.125 
14:35	82.0	82.0	79.9	21	38.2	1	3	90	0.00	30.125 
14:40	82.6	82.6	80.4	22	39.9	1	3	112	0.00	30.125 
14:45	82.4	82.4	80.1	20	37.3	1	5	90	0.00	30.125 
14:50	82.2	82.2	80.0	20	37.1	2	6	90	0.00	30.125 
14:55	82.0	82.0	80.0	22	39.4	2	5	90	0.00	30.125 
15:00	82.0	82.0	80.0	22	39.4	2	5	112	0.00	30.120 
15:05	82.2	82.2	80.0	20	37.1	3	9	90	0.00	30.120 
15:10	82.4	82.4	80.2	21	38.5	2	5	90	0.00	30.120 
15:15	82.8	82.8	80.4	19	36.3	1	5	90	0.00	30.122 
15:20	83.4	83.4	80.8	20	38.1	2	7	90	0.00	30.122 
15:25	83.4	83.4	80.8	20	38.1	3	7	90	0.00	30.122 
15:30	83.6	83.6	80.9	19	37.0	2	7	90	0.00	30.119 
15:35	84.0	84.0	81.2	17	34.5	2	6	90	0.00	30.119 
15:40	83.8	83.8	81.1	19	37.1	2	4	90	0.00	30.119 
15:45	84.0	84.0	81.2	19	37.3	2	5	112	0.00	30.120 
15:50	84.3	84.3	81.5	19	37.5	1	4	68	0.00	30.120 
15:55	84.3	84.3	81.5	19	37.5	2	4	68	0.00	30.120 
16:00	84.3	84.3	81.5	20	38.8	2	5	90	0.00	30.119 
16:05	84.3	84.3	81.5	19	37.5	1	3	90	0.00	30.119 
16:10	84.9	84.9	81.8	17	35.2	2	5	90	0.00	30.119 
16:15	84.7	84.7	81.7	18	36.5	1	4	112	0.00	30.118 
16:20	84.5	84.5	81.6	19	37.7	1	4	112	0.00	30.118 
16:25	84.5	84.5	81.5	17	34.9	3	9	90	0.00	30.118 
16:30	84.7	84.7	81.8	19	37.9	2	6	90	0.00	30.112 
16:35	84.7	84.7	81.7	18	36.5	2	7	112	0.00	30.112 
16:40	84.7	84.7	81.7	17	35.0	2	6	90	0.00	30.112 
16:45	84.9	84.9	81.8	17	35.2	1	5	112	0.00	30.111 
16:50	84.7	84.7	81.7	17	35.0	4	10	90	0.00	30.111 
16:55	84.3	84.3	81.4	18	36.2	3	7	68	0.00	30.111 
17:00	84.5	84.5	81.5	17	34.9	2	6	90	0.00	30.107 
17:05	84.5	84.5	81.5	17	34.9	2	10	90	0.00	30.107 
17:10	84.1	84.1	81.2	17	34.6	5	14	90	0.00	30.107 
17:15	83.8	83.8	81.0	17	34.3	3	6	90	0.00	30.105 
17:20	84.1	84.1	81.2	17	34.6	2	6	68	0.00	30.105 
17:25	84.3	84.3	81.4	18	36.2	2	6	112	0.00	30.105 
17:30	84.7	84.7	81.7	18	36.5	2	6	112	0.00	30.102 
17:35	84.7	84.7	81.8	19	37.9	2	6	112	0.00	30.102 
17:40	84.5	84.5	81.6	19	37.7	2	9	90	0.00	30.102 
17:45	84.3	84.3	81.4	18	36.2	2	7	68	0.00	30.104 
17:50	84.3	84.3	81.5	19	37.5	2	4	68	0.00	30.104 
17:55	84.1	84.1	81.2	17	34.6	2	6	90	0.00	30.104 
18:00	84.0	84.0	81.2	18	35.9	3	7	90	0.00	30.105 
18:05	84.0	84.0	81.2	17	34.5	2	7	90	0.00	30.105 
18:10	84.0	84.0	81.2	17	34.5	2	7	68	0.00	30.105 
18:15	83.8	83.8	81.0	17	34.3	3	9	68	0.00	30.104 
18:20	83.4	83.4	80.8	18	35.4	2	7	112	0.00	30.104 
18:25	83.4	83.4	80.7	17	34.0	1	6	112	0.00	30.104 
18:30	83.4	83.4	80.8	18	35.4	1	4	45	0.00	30.090 
18:35	83.4	83.4	80.8	18	35.4	3	7	112	0.00	30.090 
18:40	83.2	83.2	80.6	17	33.8	2	6	68	0.00	30.090 
18:45	83.0	83.0	80.4	17	33.7	2	4	68	0.00	30.088 
18:50	82.8	82.8	80.3	18	34.9	1	4	68	0.00	30.088 
18:55	82.8	82.8	80.3	17	33.5	3	7	68	0.00	30.088 
19:00	82.4	82.4	80.0	17	33.2	3	10	68	0.00	30.087 
19:05	82.4	82.4	80.1	18	34.6	2	4	90	0.00	30.087 
19:10	82.4	82.4	80.1	18	34.6	1	5	90	0.00	30.087 
19:15	82.2	82.2	79.9	18	34.5	1	5	112	0.00	30.085 
19:20	82.2	82.2	79.9	18	34.5	0	2	112	0.00	30.085 
19:25	82.0	82.0	79.8	18	34.3	1	4	112	0.00	30.085 
19:30	81.8	81.8	79.6	18	34.1	2	5	90	0.00	30.085 
19:35	81.6	81.6	79.6	19	35.3	0	2	90	0.00	30.085 
19:40	81.6	81.6	79.5	18	34.0	1	3	90	0.00	30.085 
19:45	81.4	81.4	79.4	19	35.2	2	9	90	0.00	30.085 
19:50	81.1	81.1	79.2	19	34.9	2	6	90	0.00	30.085 
19:55	80.9	80.9	79.1	20	36.0	2	5	90	0.00	30.085 
20:00	80.7	80.7	79.0	20	35.9	1	4	90	0.00	30.085 
20:05	80.5	80.5	78.9	21	37.0	1	4	90	0.00	30.085 
20:10	80.3	80.3	78.9	22	38.0	1	3	90	0.00	30.085 
20:15	79.9	79.9	78.6	22	37.6	0	2	90	0.00	30.083 
20:20	79.8	79.8	78.6	23	38.7	0	1	90	0.00	30.083 
20:25	79.4	79.4	78.4	23	38.4	0	1	90	0.00	30.083 
20:30	79.0	79.0	78.2	24	39.1	0	1	90	0.00	30.086 
20:35	78.6	78.6	78.0	24	38.8	0	2	90	0.00	30.086 
20:40	78.1	78.1	77.8	24	38.4	0	1	90	0.00	30.086 
20:45	77.6	77.6	77.6	25	39.0	0	1	90	0.00	30.084 
20:50	77.2	77.2	77.4	25	38.6	0	0	---	0.00	30.084 
20:55	76.8	76.8	77.2	25	38.3	0	1	90	0.00	30.084 
21:00	76.3	76.3	77.1	26	38.9	0	0	---	0.00	30.082 
21:05	76.0	76.0	77.1	27	39.6	0	0	---	0.00	30.082 
21:10	75.4	75.4	76.8	27	39.1	0	1	90	0.00	30.082 
21:15	75.1	75.1	76.7	27	38.8	0	1	90	0.00	30.075 
21:20	74.9	74.9	74.9	28	39.6	0	0	---	0.00	30.075 
21:25	74.6	74.6	74.6	28	39.3	0	1	90	0.00	30.075 
21:30	74.2	74.2	74.2	28	39.0	0	1	90	0.00	30.072 
21:35	73.9	73.9	73.9	30	40.5	0	0	---	0.00	30.072 
21:40	73.5	73.5	73.5	30	40.2	0	0	---	0.00	30.072 
21:45	73.0	73.0	73.0	30	39.7	0	0	---	0.00	30.083 
21:50	72.5	72.5	72.5	31	40.1	0	0	---	0.00	30.083 
21:55	72.0	72.0	72.0	32	40.5	0	0	---	0.00	30.083 
22:00	71.6	71.6	71.6	34	41.7	0	3	90	0.00	30.085 
22:05	71.6	71.6	71.6	33	41.0	1	3	90	0.00	30.085 
22:10	71.8	71.8	71.8	36	43.4	1	3	90	0.00	30.085 
22:15	71.8	71.8	71.8	39	45.5	1	3	90	0.00	30.091 
22:20	71.8	71.8	71.8	42	47.5	1	4	68	0.00	30.091 
22:25	71.6	71.6	71.6	44	48.5	1	3	68	0.00	30.091 
22:30	71.5	71.5	71.5	47	50.2	2	6	68	0.00	30.088 
22:35	71.3	71.3	71.3	49	51.1	2	6	90	0.00	30.088 
22:40	71.1	71.1	71.1	50	51.5	1	4	90	0.00	30.088 
22:45	71.1	71.1	71.1	51	52.0	2	4	90	0.00	30.095 
22:50	71.1	71.1	71.1	52	52.6	2	5	90	0.00	30.095 
22:55	70.9	70.9	70.9	52	52.4	2	4	90	0.00	30.095 
23:00	70.8	70.8	70.8	52	52.3	3	6	90	0.00	30.094 
23:05	70.6	70.6	70.6	53	52.6	2	5	68	0.00	30.094 
23:10	70.4	70.4	70.4	53	52.4	2	3	68	0.00	30.094 
23:15	70.1	70.1	70.1	54	52.7	2	5	68	0.00	30.086 
23:20	69.9	69.9	69.9	54	52.5	2	4	90	0.00	30.086 
23:25	69.8	69.8	69.8	55	52.9	2	6	90	0.00	30.086 
23:30	69.4	69.4	69.4	55	52.5	2	6	68	0.00	30.082 
23:35	69.3	69.3	69.3	56	52.9	2	5	68	0.00	30.082 
23:40	69.1	69.1	69.1	56	52.7	1	5	68	0.00	30.082 
23:45	68.8	68.8	68.8	57	52.9	1	3	112	0.00	30.079 
23:50	68.6	68.6	68.6	57	52.7	2	6	90	0.00	30.079 
23:55	68.3	68.3	68.3	58	52.9	2	4	90	0.00	30.079 

CoCoRaHS
IN-AL-39
A2 Web Hosting
Creative Commons License
GoDaddy
search engine by freefind advanced

loaded 2018-11-17 12:54:05 • last modified 2010-11-18 10:43:29
Privacy PolicyDisclaimer
• wx.awcolley.com is powered by PmWiki v.2002016 •
• all content (unless otherwise noted) © 2018 A W Colley